createdAt,value
2016-11-04T00:00:12.558Z,20.28
2016-11-04T00:01:13.688Z,19.98
2016-11-04T00:02:12.808Z,20.32
2016-11-04T00:03:15.506Z,20.32
2016-11-04T00:04:17.225Z,20.33
2016-11-04T00:05:13.816Z,20.32
2016-11-04T00:06:13.147Z,20.31
2016-11-04T00:07:12.645Z,20.00
2016-11-04T00:08:13.080Z,19.79
2016-11-04T00:09:12.801Z,19.73
2016-11-04T00:10:14.418Z,19.71
2016-11-04T00:11:14.453Z,19.70
2016-11-04T00:12:12.921Z,19.69
2016-11-04T00:13:13.423Z,19.67
2016-11-04T00:14:12.962Z,19.68
2016-11-04T00:15:13.042Z,19.73
2016-11-04T00:16:12.521Z,19.67
2016-11-04T00:17:12.263Z,19.65
2016-11-04T00:18:12.297Z,19.66
2016-11-04T00:19:12.653Z,19.66
2016-11-04T00:20:12.667Z,19.67
2016-11-04T00:21:12.228Z,19.67
2016-11-04T00:22:16.196Z,19.65
2016-11-04T00:23:13.791Z,19.66
2016-11-04T00:24:11.610Z,19.65
2016-11-04T00:25:12.726Z,19.65
2016-11-04T00:26:12.110Z,19.66
2016-11-04T00:27:13.288Z,19.68
2016-11-04T00:28:12.228Z,19.68
2016-11-04T00:29:13.108Z,19.66
2016-11-04T00:30:12.996Z,19.66
2016-11-04T00:31:13.828Z,19.64
2016-11-04T00:32:13.448Z,19.64
2016-11-04T00:33:14.668Z,19.64
2016-11-04T00:34:12.227Z,19.65
2016-11-04T00:35:14.118Z,19.64
2016-11-04T00:36:13.182Z,19.71
2016-11-04T00:37:14.055Z,19.63
2016-11-04T00:38:13.587Z,19.63
2016-11-04T00:39:11.978Z,19.63
2016-11-04T00:40:12.331Z,19.63
2016-11-04T00:41:13.494Z,19.63
2016-11-04T00:42:14.081Z,19.63
2016-11-04T00:43:14.703Z,19.62
2016-11-04T00:44:12.934Z,19.66
2016-11-04T00:45:12.309Z,19.62
2016-11-04T00:46:12.582Z,19.62
2016-11-04T00:47:12.502Z,19.70
2016-11-04T00:48:13.430Z,20.16
2016-11-04T00:49:12.690Z,20.20
2016-11-04T00:50:12.127Z,19.85
2016-11-04T00:51:12.641Z,19.69
2016-11-04T00:52:13.422Z,19.64
2016-11-04T00:53:12.916Z,19.64
2016-11-04T00:54:13.209Z,19.64
2016-11-04T00:55:12.618Z,20.15
2016-11-04T00:56:13.143Z,20.19
2016-11-04T00:57:11.597Z,20.21
2016-11-04T00:58:13.313Z,20.23
2016-11-04T00:59:13.431Z,20.21
2016-11-04T01:00:13.437Z,20.23
2016-11-04T01:01:14.900Z,20.23
2016-11-04T01:02:14.091Z,20.23
2016-11-04T01:03:12.532Z,20.23
2016-11-04T01:04:11.395Z,20.22
2016-11-04T01:05:15.501Z,19.71
2016-11-04T01:06:12.466Z,19.63
2016-11-04T01:07:15.229Z,19.62
2016-11-04T01:08:13.163Z,19.61
2016-11-04T01:09:13.703Z,19.63
2016-11-04T01:10:13.540Z,19.67
2016-11-04T01:11:13.528Z,19.61
2016-11-04T01:12:13.527Z,19.59
2016-11-04T01:13:14.381Z,19.60
2016-11-04T01:14:15.280Z,19.61
2016-11-04T01:15:13.764Z,19.60
2016-11-04T01:16:13.296Z,19.60
2016-11-04T01:17:13.229Z,19.60
2016-11-04T01:18:13.224Z,19.58
2016-11-04T01:19:13.555Z,19.60
2016-11-04T01:20:10.213Z,19.59
2016-11-04T01:21:14.085Z,19.58
2016-11-04T01:22:13.140Z,19.59
2016-11-04T01:23:13.249Z,19.69
2016-11-04T01:24:12.980Z,19.60
2016-11-04T01:25:12.348Z,19.58
2016-11-04T01:26:13.450Z,19.59
2016-11-04T01:27:13.024Z,19.58
2016-11-04T01:28:13.277Z,19.58
2016-11-04T01:29:15.877Z,19.59
2016-11-04T01:30:12.251Z,19.58
2016-11-04T01:31:13.566Z,19.56
2016-11-04T01:32:12.806Z,19.58
2016-11-04T01:33:15.572Z,19.57
2016-11-04T01:34:15.185Z,19.58
2016-11-04T01:35:12.515Z,19.58
2016-11-04T01:36:14.007Z,19.58
2016-11-04T01:37:13.733Z,19.65
2016-11-04T01:38:14.355Z,19.58
2016-11-04T01:39:15.165Z,19.57
2016-11-04T01:40:13.170Z,19.57
2016-11-04T01:41:14.760Z,19.58
2016-11-04T01:42:13.424Z,19.57
2016-11-04T01:43:14.236Z,19.58
2016-11-04T01:44:18.240Z,19.57
2016-11-04T01:45:11.776Z,19.57
2016-11-04T01:46:13.760Z,19.57
2016-11-04T01:47:13.188Z,19.57
2016-11-04T01:48:15.671Z,19.57
2016-11-04T01:49:12.056Z,19.57
2016-11-04T01:50:13.318Z,19.57
2016-11-04T01:51:19.084Z,19.57
2016-11-04T01:52:14.105Z,19.56
2016-11-04T01:53:12.580Z,19.58
2016-11-04T01:54:12.829Z,19.60
2016-11-04T01:55:12.665Z,19.59
2016-11-04T01:56:12.129Z,19.58
2016-11-04T01:57:12.853Z,19.58
2016-11-04T01:58:14.790Z,19.58
2016-11-04T01:59:12.965Z,19.57
2016-11-04T02:00:13.096Z,19.56
2016-11-04T02:01:14.660Z,19.56
2016-11-04T02:02:17.089Z,19.56
2016-11-04T02:03:12.875Z,19.56
2016-11-04T02:04:18.982Z,19.59
2016-11-04T02:05:12.906Z,19.57
2016-11-04T02:06:12.631Z,19.55
2016-11-04T02:07:11.158Z,19.55
2016-11-04T02:08:13.846Z,19.56
2016-11-04T02:09:13.229Z,19.56
2016-11-04T02:10:15.750Z,19.57
2016-11-04T02:11:13.978Z,19.57
2016-11-04T02:12:13.808Z,19.62
2016-11-04T02:13:13.863Z,19.56
2016-11-04T02:14:14.627Z,19.56
2016-11-04T02:15:13.867Z,19.56
2016-11-04T02:16:11.675Z,19.55
2016-11-04T02:17:15.356Z,20.08
2016-11-04T02:18:13.707Z,19.60
2016-11-04T02:19:14.862Z,19.60
2016-11-04T02:20:14.345Z,20.08
2016-11-04T02:21:14.871Z,20.14
2016-11-04T02:22:12.766Z,20.15
2016-11-04T02:23:14.206Z,20.14
2016-11-04T02:24:14.262Z,20.15
2016-11-04T02:25:13.105Z,20.16
2016-11-04T02:26:14.488Z,20.10
2016-11-04T02:27:12.102Z,20.17
2016-11-04T02:28:14.361Z,20.16
2016-11-04T02:29:15.112Z,20.16
2016-11-04T02:30:13.657Z,20.18
2016-11-04T02:31:13.461Z,20.17
2016-11-04T02:32:14.726Z,20.17
2016-11-04T02:33:13.639Z,20.17
2016-11-04T02:34:12.494Z,20.18
2016-11-04T02:35:14.763Z,19.63
2016-11-04T02:36:13.700Z,19.60
2016-11-04T02:37:13.621Z,19.57
2016-11-04T02:38:12.970Z,19.55
2016-11-04T02:39:15.675Z,19.56
2016-11-04T02:40:16.301Z,19.55
2016-11-04T02:41:13.240Z,19.55
2016-11-04T02:42:16.057Z,19.54
2016-11-04T02:43:15.289Z,19.54
2016-11-04T02:44:14.000Z,19.54
2016-11-04T02:45:14.038Z,19.62
2016-11-04T02:46:14.785Z,20.06
2016-11-04T02:47:13.527Z,20.11
2016-11-04T02:48:14.231Z,20.12
2016-11-04T02:49:20.709Z,20.13
2016-11-04T02:50:12.261Z,20.16
2016-11-04T02:51:12.266Z,20.14
2016-11-04T02:52:13.978Z,20.15
2016-11-04T02:53:12.638Z,20.15
2016-11-04T02:54:12.846Z,20.16
2016-11-04T02:55:11.870Z,20.16
2016-11-04T02:56:14.280Z,20.15
2016-11-04T02:57:13.913Z,19.64
2016-11-04T02:58:13.605Z,19.57
2016-11-04T02:59:12.784Z,19.62
2016-11-04T03:00:12.189Z,19.55
2016-11-04T03:01:12.693Z,19.54
2016-11-04T03:02:12.659Z,19.53
2016-11-04T03:03:14.147Z,19.52
2016-11-04T03:04:14.358Z,19.52
2016-11-04T03:05:13.097Z,19.52
2016-11-04T03:06:12.873Z,19.52
2016-11-04T03:07:12.946Z,19.52
2016-11-04T03:08:15.214Z,19.52
2016-11-04T03:09:13.459Z,19.53
2016-11-04T03:10:14.828Z,19.52
2016-11-04T03:11:14.539Z,19.51
2016-11-04T03:12:13.083Z,19.51
2016-11-04T03:13:12.430Z,19.52
2016-11-04T03:14:13.956Z,19.51
2016-11-04T03:15:13.956Z,19.51
2016-11-04T03:16:12.163Z,19.51
2016-11-04T03:17:13.568Z,19.51
2016-11-04T03:18:12.423Z,19.51
2016-11-04T03:19:13.563Z,19.52
2016-11-04T03:20:12.743Z,19.54
2016-11-04T03:21:14.110Z,19.52
2016-11-04T03:22:15.103Z,19.51
2016-11-04T03:23:13.527Z,19.50
2016-11-04T03:24:14.326Z,19.51
2016-11-04T03:25:12.605Z,19.51
2016-11-04T03:26:12.120Z,19.53
2016-11-04T03:27:13.801Z,19.58
2016-11-04T03:28:13.789Z,19.51
2016-11-04T03:29:11.279Z,19.50
2016-11-04T03:30:11.638Z,19.49
2016-11-04T03:31:14.477Z,19.50
2016-11-04T03:32:13.233Z,19.51
2016-11-04T03:33:14.774Z,19.50
2016-11-04T03:34:13.318Z,19.56
2016-11-04T03:35:19.506Z,19.52
2016-11-04T03:36:15.284Z,19.51
2016-11-04T03:37:10.744Z,19.51
2016-11-04T03:38:11.400Z,19.50
2016-11-04T03:39:10.012Z,19.50
2016-11-04T03:40:14.898Z,19.51
2016-11-04T03:41:16.359Z,19.51
2016-11-04T03:42:13.841Z,19.52
2016-11-04T03:43:12.264Z,19.52
2016-11-04T03:44:15.746Z,19.50
2016-11-04T03:45:12.255Z,19.50
2016-11-04T03:46:10.626Z,19.50
2016-11-04T03:47:12.755Z,19.54
2016-11-04T03:48:12.653Z,19.49
2016-11-04T03:49:12.825Z,19.56
2016-11-04T03:50:13.332Z,19.49
2016-11-04T03:51:12.697Z,20.03
2016-11-04T03:52:11.050Z,20.07
2016-11-04T03:53:13.494Z,19.78
2016-11-04T03:54:13.325Z,19.57
2016-11-04T03:55:14.444Z,19.53
2016-11-04T03:56:14.029Z,19.53
2016-11-04T03:57:12.390Z,19.53
2016-11-04T03:58:13.268Z,19.52
2016-11-04T03:59:15.175Z,19.53
2016-11-04T04:00:13.037Z,19.51
2016-11-04T04:01:12.516Z,19.50
2016-11-04T04:02:13.353Z,19.50
2016-11-04T04:03:13.534Z,19.49
2016-11-04T04:04:15.191Z,19.49
2016-11-04T04:05:11.831Z,19.48
2016-11-04T04:06:12.637Z,19.48
2016-11-04T04:07:12.285Z,19.49
2016-11-04T04:08:14.735Z,19.48
2016-11-04T04:09:12.927Z,19.48
2016-11-04T04:10:12.291Z,19.49
2016-11-04T04:11:10.892Z,19.48
2016-11-04T04:12:13.270Z,19.55
2016-11-04T04:13:13.137Z,19.49
2016-11-04T04:14:18.313Z,19.48
2016-11-04T04:15:13.419Z,19.48
2016-11-04T04:16:12.856Z,19.47
2016-11-04T04:17:13.549Z,19.48
2016-11-04T04:18:13.306Z,19.48
2016-11-04T04:19:19.002Z,19.47
2016-11-04T04:20:14.323Z,19.48
2016-11-04T04:21:13.884Z,19.51
2016-11-04T04:22:12.653Z,20.00
2016-11-04T04:23:13.444Z,19.54
2016-11-04T04:24:14.029Z,19.50
2016-11-04T04:25:13.430Z,19.49
2016-11-04T04:26:12.454Z,19.49
2016-11-04T04:27:13.002Z,19.49
2016-11-04T04:28:13.535Z,19.47
2016-11-04T04:29:13.537Z,19.48
2016-11-04T04:30:14.547Z,20.01
2016-11-04T04:31:13.808Z,20.04
2016-11-04T04:32:16.923Z,19.56
2016-11-04T04:33:12.969Z,20.03
2016-11-04T04:34:12.744Z,20.07
2016-11-04T04:35:14.449Z,19.55
2016-11-04T04:36:12.369Z,19.51
2016-11-04T04:37:14.274Z,20.03
2016-11-04T04:38:13.304Z,20.08
2016-11-04T04:39:11.333Z,20.09
2016-11-04T04:40:13.521Z,20.10
2016-11-04T04:41:13.722Z,19.58
2016-11-04T04:42:12.543Z,19.53
2016-11-04T04:43:12.937Z,19.58
2016-11-04T04:44:12.733Z,19.49
2016-11-04T04:45:12.827Z,19.52
2016-11-04T04:46:13.336Z,19.49
2016-11-04T04:47:11.700Z,19.49
2016-11-04T04:48:13.057Z,19.49
2016-11-04T04:49:12.419Z,19.48
2016-11-04T04:50:13.159Z,19.47
2016-11-04T04:51:14.363Z,19.46
2016-11-04T04:52:11.979Z,19.45
2016-11-04T04:53:13.385Z,19.47
2016-11-04T04:54:12.317Z,19.45
2016-11-04T04:55:13.399Z,19.45
2016-11-04T04:56:12.380Z,19.45
2016-11-04T04:57:13.497Z,19.45
2016-11-04T04:58:13.469Z,19.45
2016-11-04T04:59:14.184Z,19.44
2016-11-04T05:00:12.977Z,19.44
2016-11-04T05:01:13.808Z,19.44
2016-11-04T05:02:13.636Z,19.43
2016-11-04T05:03:13.164Z,19.43
2016-11-04T05:04:13.685Z,19.43
2016-11-04T05:05:11.218Z,19.95
2016-11-04T05:06:12.720Z,20.01
2016-11-04T05:07:11.635Z,19.50
2016-11-04T05:08:12.329Z,19.46
2016-11-04T05:09:13.458Z,19.45
2016-11-04T05:10:13.416Z,19.44
2016-11-04T05:11:12.806Z,19.44
2016-11-04T05:12:12.346Z,19.44
2016-11-04T05:13:12.355Z,19.43
2016-11-04T05:14:12.891Z,19.41
2016-11-04T05:15:13.162Z,19.46
2016-11-04T05:16:14.327Z,19.95
2016-11-04T05:17:12.959Z,19.63
2016-11-04T05:18:12.894Z,19.49
2016-11-04T05:19:19.371Z,19.47
2016-11-04T05:20:12.837Z,19.45
2016-11-04T05:21:12.455Z,19.43
2016-11-04T05:22:13.565Z,19.42
2016-11-04T05:23:13.001Z,19.42
2016-11-04T05:24:12.497Z,19.41
2016-11-04T05:25:16.899Z,19.42
2016-11-04T05:26:18.057Z,19.42
2016-11-04T05:27:16.668Z,19.41
2016-11-04T05:28:13.113Z,19.41
2016-11-04T05:29:13.027Z,19.48
2016-11-04T05:30:14.775Z,19.42
2016-11-04T05:31:13.745Z,19.42
2016-11-04T05:32:12.778Z,19.42
2016-11-04T05:33:12.952Z,19.42
2016-11-04T05:34:13.134Z,19.49
2016-11-04T05:35:13.863Z,19.42
2016-11-04T05:36:13.603Z,19.42
2016-11-04T05:37:12.600Z,19.41
2016-11-04T05:38:13.473Z,19.46
2016-11-04T05:39:13.676Z,19.39
2016-11-04T05:40:12.615Z,19.48
2016-11-04T05:41:12.189Z,19.40
2016-11-04T05:42:13.164Z,19.48
2016-11-04T05:43:13.429Z,19.42
2016-11-04T05:44:20.746Z,19.45
2016-11-04T05:45:20.098Z,19.45
2016-11-04T05:46:12.909Z,19.44
2016-11-04T05:47:12.851Z,19.46
2016-11-04T05:48:18.580Z,19.45
2016-11-04T05:49:14.316Z,19.45
2016-11-04T05:50:13.483Z,19.45
2016-11-04T05:51:13.026Z,19.44
2016-11-04T05:52:12.013Z,19.44
2016-11-04T05:53:13.056Z,19.45
2016-11-04T05:54:12.794Z,19.44
2016-11-04T05:55:12.145Z,19.42
2016-11-04T05:56:11.779Z,19.40
2016-11-04T05:57:12.288Z,19.42
2016-11-04T05:58:12.643Z,19.38
2016-11-04T05:59:12.983Z,19.47
2016-11-04T06:00:13.758Z,19.39
2016-11-04T06:01:12.689Z,19.45
2016-11-04T06:02:12.056Z,19.40
2016-11-04T06:03:12.851Z,19.39
2016-11-04T06:04:12.473Z,19.39
2016-11-04T06:05:13.222Z,19.38
2016-11-04T06:06:13.328Z,19.37
2016-11-04T06:07:12.634Z,19.38
2016-11-04T06:08:13.306Z,19.38
2016-11-04T06:09:12.894Z,19.37
2016-11-04T06:10:12.835Z,19.44
2016-11-04T06:11:13.744Z,19.37
2016-11-04T06:12:12.145Z,19.37
2016-11-04T06:13:12.456Z,19.38
2016-11-04T06:14:13.418Z,19.36
2016-11-04T06:15:14.227Z,19.40
2016-11-04T06:16:12.527Z,19.56
2016-11-04T06:17:13.158Z,19.46
2016-11-04T06:18:12.496Z,17.71
2016-11-04T06:19:13.814Z,15.73
2016-11-04T06:20:12.470Z,14.69
2016-11-04T06:21:14.234Z,13.25
2016-11-04T06:22:13.015Z,13.15
2016-11-04T06:23:11.748Z,14.04
2016-11-04T06:24:14.192Z,15.00
2016-11-04T06:25:12.849Z,15.68
2016-11-04T06:26:13.424Z,16.19
2016-11-04T06:27:12.863Z,16.57
2016-11-04T06:28:12.442Z,16.90
2016-11-04T06:29:12.801Z,17.18
2016-11-04T06:30:12.662Z,17.40
2016-11-04T06:31:12.215Z,17.58
2016-11-04T06:32:12.553Z,17.74
2016-11-04T06:33:12.454Z,17.86
2016-11-04T06:34:13.170Z,17.98
2016-11-04T06:35:12.845Z,18.07
2016-11-04T06:36:11.370Z,18.14
2016-11-04T06:37:13.212Z,18.22
2016-11-04T06:38:13.564Z,18.28
2016-11-04T06:39:12.777Z,18.38
2016-11-04T06:40:12.251Z,18.40
2016-11-04T06:41:13.103Z,18.55
2016-11-04T06:42:13.949Z,18.57
2016-11-04T06:43:12.703Z,18.56
2016-11-04T06:44:12.865Z,18.62
2016-11-04T06:45:12.587Z,18.59
2016-11-04T06:46:16.590Z,18.59
2016-11-04T06:47:12.884Z,18.63
2016-11-04T06:48:12.446Z,18.60
2016-11-04T06:49:13.543Z,18.61
2016-11-04T06:50:12.980Z,18.63
2016-11-04T06:51:10.251Z,18.65
2016-11-04T06:52:12.589Z,18.67
2016-11-04T06:53:14.420Z,18.69
2016-11-04T06:54:12.845Z,18.71
2016-11-04T06:55:12.638Z,18.73
2016-11-04T06:56:12.180Z,18.73
2016-11-04T06:57:20.554Z,18.75
2016-11-04T06:58:12.287Z,18.75
2016-11-04T06:59:19.372Z,18.77
2016-11-04T07:00:13.591Z,18.80
2016-11-04T07:01:10.993Z,18.81
2016-11-04T07:02:12.820Z,18.82
2016-11-04T07:03:12.576Z,18.85
2016-11-04T07:04:12.117Z,18.85
2016-11-04T07:05:12.554Z,18.86
2016-11-04T07:06:13.313Z,18.87
2016-11-04T07:07:14.146Z,18.89
2016-11-04T07:08:12.896Z,18.91
2016-11-04T07:09:12.497Z,18.92
2016-11-04T07:10:13.893Z,18.94
2016-11-04T07:11:11.244Z,18.94
2016-11-04T07:12:12.944Z,19.16
2016-11-04T07:13:10.256Z,19.02
2016-11-04T07:14:09.914Z,19.01
2016-11-04T07:15:13.325Z,19.00
2016-11-04T07:16:13.831Z,19.07
2016-11-04T07:17:13.695Z,19.09
2016-11-04T07:18:11.104Z,19.07
2016-11-04T07:19:13.617Z,19.06
2016-11-04T07:20:13.654Z,19.03
2016-11-04T07:21:12.727Z,18.99
2016-11-04T07:22:12.403Z,18.95
2016-11-04T07:23:18.641Z,18.98
2016-11-04T07:24:13.455Z,18.98
2016-11-04T07:25:15.265Z,18.98
2016-11-04T07:26:13.776Z,19.01
2016-11-04T07:27:12.702Z,19.01
2016-11-04T07:28:10.797Z,19.01
2016-11-04T07:29:12.962Z,19.03
2016-11-04T07:30:12.644Z,19.04
2016-11-04T07:31:13.086Z,19.05
2016-11-04T07:32:12.566Z,19.05
2016-11-04T07:33:12.006Z,19.06
2016-11-04T07:34:13.905Z,19.06
2016-11-04T07:35:13.309Z,19.13
2016-11-04T07:36:10.742Z,19.06
2016-11-04T07:37:12.654Z,19.07
2016-11-04T07:38:12.658Z,19.08
2016-11-04T07:39:12.464Z,19.07
2016-11-04T07:40:14.046Z,19.08
2016-11-04T07:41:13.734Z,19.08
2016-11-04T07:42:18.351Z,19.10
2016-11-04T07:43:14.594Z,19.10
2016-11-04T07:44:13.499Z,19.10
2016-11-04T07:45:12.858Z,19.07
2016-11-04T07:46:12.295Z,19.08
2016-11-04T07:47:12.869Z,19.09
2016-11-04T07:48:12.857Z,19.10
2016-11-04T07:49:12.571Z,19.06
2016-11-04T07:50:12.141Z,19.06
2016-11-04T07:51:14.057Z,19.17
2016-11-04T07:52:12.924Z,19.65
2016-11-04T07:53:12.625Z,19.71
2016-11-04T07:54:13.604Z,19.75
2016-11-04T07:55:12.489Z,19.78
2016-11-04T07:56:12.858Z,19.42
2016-11-04T07:57:11.363Z,19.26
2016-11-04T07:58:14.327Z,19.19
2016-11-04T07:59:13.193Z,19.17
2016-11-04T08:00:13.355Z,19.25
2016-11-04T08:01:12.674Z,19.16
2016-11-04T08:02:19.408Z,19.17
2016-11-04T08:03:12.356Z,19.17
2016-11-04T08:04:12.697Z,19.16
2016-11-04T08:05:12.670Z,19.18
2016-11-04T08:06:12.548Z,19.17
2016-11-04T08:07:10.871Z,19.15
2016-11-04T08:08:12.817Z,19.72
2016-11-04T08:09:12.912Z,19.77
2016-11-04T08:10:12.950Z,19.79
2016-11-04T08:11:19.084Z,19.80
2016-11-04T08:12:13.186Z,19.27
2016-11-04T08:13:11.842Z,19.23
2016-11-04T08:14:12.392Z,19.73
2016-11-04T08:15:13.646Z,19.78
2016-11-04T08:16:14.825Z,19.81
2016-11-04T08:17:13.829Z,19.82
2016-11-04T08:18:12.811Z,19.49
2016-11-04T08:19:12.718Z,19.29
2016-11-04T08:20:12.582Z,19.25
2016-11-04T08:21:11.549Z,19.23
2016-11-04T08:22:13.764Z,19.22
2016-11-04T08:23:13.042Z,19.22
2016-11-04T08:24:13.190Z,19.27
2016-11-04T08:25:12.731Z,19.21
2016-11-04T08:26:13.273Z,19.20
2016-11-04T08:27:19.577Z,19.20
2016-11-04T08:28:12.412Z,19.18
2016-11-04T08:29:12.976Z,19.20
2016-11-04T08:30:15.500Z,19.20
2016-11-04T08:31:11.438Z,19.19
2016-11-04T08:32:12.616Z,19.74
2016-11-04T08:33:13.049Z,19.79
2016-11-04T08:34:12.809Z,19.82
2016-11-04T08:35:13.545Z,19.83
2016-11-04T08:36:12.358Z,19.83
2016-11-04T08:37:12.649Z,19.85
2016-11-04T08:38:12.165Z,19.86
2016-11-04T08:39:13.097Z,19.86
2016-11-04T08:40:12.363Z,19.86
2016-11-04T08:41:13.311Z,19.86
2016-11-04T08:42:10.849Z,19.87
2016-11-04T08:43:12.991Z,19.87
2016-11-04T08:44:13.576Z,19.87
2016-11-04T08:45:12.428Z,19.88
2016-11-04T08:46:13.769Z,19.88
2016-11-04T08:47:13.246Z,19.53
2016-11-04T08:48:11.182Z,19.34
2016-11-04T08:49:12.128Z,19.31
2016-11-04T08:50:12.805Z,19.27
2016-11-04T08:51:12.829Z,19.33
2016-11-04T08:52:12.688Z,19.27
2016-11-04T08:53:12.877Z,19.26
2016-11-04T08:54:13.093Z,19.33
2016-11-04T08:55:13.257Z,19.33
2016-11-04T08:56:13.080Z,19.26
2016-11-04T08:57:13.120Z,19.32
2016-11-04T08:58:13.189Z,19.26
2016-11-04T08:59:15.044Z,19.27
2016-11-04T09:00:12.745Z,19.25
2016-11-04T09:01:12.828Z,19.27
2016-11-04T09:02:11.771Z,19.27
2016-11-04T09:03:13.010Z,19.81
2016-11-04T09:04:10.220Z,19.86
2016-11-04T09:05:12.443Z,19.90
2016-11-04T09:06:13.125Z,19.55
2016-11-04T09:07:13.553Z,19.38
2016-11-04T09:08:14.301Z,19.33
2016-11-04T09:09:13.164Z,19.32
2016-11-04T09:10:12.349Z,19.32
2016-11-04T09:11:13.068Z,19.31
2016-11-04T09:12:12.880Z,19.30
2016-11-04T09:13:18.109Z,19.30
2016-11-04T09:14:12.823Z,19.30
2016-11-04T09:15:12.765Z,19.31
2016-11-04T09:16:17.975Z,19.31
2016-11-04T09:17:13.795Z,19.30
2016-11-04T09:18:16.458Z,19.31
2016-11-04T09:19:12.946Z,19.31
2016-11-04T09:20:13.759Z,19.31
2016-11-04T09:21:12.578Z,19.31
2016-11-04T09:22:17.860Z,19.31
2016-11-04T09:23:12.465Z,19.31
2016-11-04T09:24:18.540Z,19.31
2016-11-04T09:25:13.006Z,19.31
2016-11-04T09:26:12.871Z,19.31
2016-11-04T09:27:12.491Z,19.32
2016-11-04T09:28:12.698Z,19.31
2016-11-04T09:29:09.482Z,19.31
2016-11-04T09:30:12.703Z,19.32
2016-11-04T09:31:12.661Z,19.36
2016-11-04T09:32:12.965Z,19.32
2016-11-04T09:33:12.419Z,19.33
2016-11-04T09:34:12.884Z,19.33
2016-11-04T09:35:13.461Z,19.32
2016-11-04T09:36:14.136Z,19.33
2016-11-04T09:37:13.644Z,19.33
2016-11-04T09:38:13.038Z,19.34
2016-11-04T09:39:10.612Z,19.32
2016-11-04T09:40:13.856Z,19.33
2016-11-04T09:41:14.646Z,19.33
2016-11-04T09:42:17.763Z,19.33
2016-11-04T09:43:12.359Z,19.33
2016-11-04T09:44:13.097Z,19.33
2016-11-04T09:45:12.863Z,19.33
2016-11-04T09:46:13.054Z,19.36
2016-11-04T09:47:14.606Z,19.50
2016-11-04T09:48:12.306Z,19.39
2016-11-04T09:49:12.837Z,19.36
2016-11-04T09:50:13.268Z,19.40
2016-11-04T09:51:13.223Z,19.33
2016-11-04T09:52:12.615Z,19.34
2016-11-04T09:53:14.080Z,19.39
2016-11-04T09:54:12.522Z,19.33
2016-11-04T09:55:13.558Z,19.33
2016-11-04T09:56:13.245Z,19.34
2016-11-04T09:57:13.956Z,19.34
2016-11-04T09:58:13.112Z,19.34
2016-11-04T09:59:14.974Z,19.34
2016-11-04T10:00:13.458Z,19.34
2016-11-04T10:01:13.499Z,19.34
2016-11-04T10:02:13.829Z,19.34
2016-11-04T10:03:12.169Z,19.35
2016-11-04T10:04:12.565Z,19.35
2016-11-04T10:05:15.370Z,19.36
2016-11-04T10:06:13.620Z,19.34
2016-11-04T10:07:12.787Z,19.34
2016-11-04T10:08:11.271Z,19.34
2016-11-04T10:09:13.059Z,19.34
2016-11-04T10:10:13.407Z,19.35
2016-11-04T10:11:13.172Z,19.36
2016-11-04T10:12:13.532Z,19.43
2016-11-04T10:13:12.168Z,19.35
2016-11-04T10:14:12.450Z,19.37
2016-11-04T10:15:14.060Z,19.35
2016-11-04T10:16:09.361Z,19.36
2016-11-04T10:17:13.322Z,19.36
2016-11-04T10:18:14.754Z,19.37
2016-11-04T10:19:12.342Z,19.37
2016-11-04T10:20:20.563Z,19.36
2016-11-04T10:21:12.797Z,19.40
2016-11-04T10:22:12.739Z,19.36
2016-11-04T10:23:12.607Z,19.35
2016-11-04T10:24:12.692Z,19.40
2016-11-04T10:25:12.637Z,19.42
2016-11-04T10:26:16.508Z,19.36
2016-11-04T10:27:13.175Z,19.36
2016-11-04T10:28:13.526Z,19.36
2016-11-04T10:29:13.448Z,19.36
2016-11-04T10:30:12.930Z,19.36
2016-11-04T10:31:12.645Z,19.36
2016-11-04T10:32:12.235Z,19.37
2016-11-04T10:33:18.653Z,19.36
2016-11-04T10:34:13.558Z,19.36
2016-11-04T10:35:12.572Z,19.36
2016-11-04T10:36:12.817Z,19.37
2016-11-04T10:37:13.062Z,19.37
2016-11-04T10:38:13.281Z,19.37
2016-11-04T10:39:12.733Z,19.37
2016-11-04T10:40:11.291Z,19.35
2016-11-04T10:41:12.004Z,19.90
2016-11-04T10:42:13.052Z,19.96
2016-11-04T10:43:13.479Z,19.99
2016-11-04T10:44:15.680Z,19.98
2016-11-04T10:45:12.678Z,19.91
2016-11-04T10:46:13.557Z,19.47
2016-11-04T10:47:12.511Z,19.42
2016-11-04T10:48:13.179Z,19.39
2016-11-04T10:49:19.781Z,19.39
2016-11-04T10:50:13.070Z,19.37
2016-11-04T10:51:12.710Z,19.38
2016-11-04T10:52:12.630Z,19.38
2016-11-04T10:53:12.879Z,19.37
2016-11-04T10:54:13.763Z,19.37
2016-11-04T10:55:13.085Z,19.37
2016-11-04T10:56:13.870Z,19.37
2016-11-04T10:57:12.416Z,19.38
2016-11-04T10:58:13.133Z,19.38
2016-11-04T10:59:13.123Z,19.38
2016-11-04T11:00:13.876Z,19.38
2016-11-04T11:01:12.472Z,19.38
2016-11-04T11:02:13.107Z,19.40
2016-11-04T11:03:12.853Z,19.38
2016-11-04T11:04:12.759Z,19.38
2016-11-04T11:05:12.241Z,19.38
2016-11-04T11:06:13.563Z,19.38
2016-11-04T11:07:12.823Z,19.37
2016-11-04T11:08:13.469Z,19.37
2016-11-04T11:09:12.901Z,19.37
2016-11-04T11:10:18.905Z,19.38
2016-11-04T11:11:12.583Z,19.38
2016-11-04T11:12:12.920Z,19.37
2016-11-04T11:13:12.544Z,19.38
2016-11-04T11:14:13.004Z,19.38
2016-11-04T11:15:12.665Z,19.38
2016-11-04T11:16:11.389Z,19.37
2016-11-04T11:17:12.968Z,19.91
2016-11-04T11:18:13.170Z,19.97
2016-11-04T11:19:12.674Z,19.98
2016-11-04T11:20:12.558Z,20.00
2016-11-04T11:21:13.514Z,19.76
2016-11-04T11:22:13.239Z,19.49
2016-11-04T11:23:13.850Z,19.43
2016-11-04T11:24:12.636Z,19.42
2016-11-04T11:25:10.045Z,19.39
2016-11-04T11:26:13.361Z,19.93
2016-11-04T11:27:13.377Z,19.98
2016-11-04T11:28:12.862Z,19.99
2016-11-04T11:29:12.897Z,19.64
2016-11-04T11:30:13.009Z,19.47
2016-11-04T11:31:12.630Z,19.43
2016-11-04T11:32:13.929Z,19.95
2016-11-04T11:33:12.850Z,19.46
2016-11-04T11:34:12.784Z,19.44
2016-11-04T11:35:18.794Z,19.41
2016-11-04T11:36:14.627Z,19.41
2016-11-04T11:37:12.338Z,19.39
2016-11-04T11:38:10.724Z,19.40
2016-11-04T11:39:14.697Z,19.39
2016-11-04T11:40:13.107Z,19.41
2016-11-04T11:41:12.929Z,19.41
2016-11-04T11:42:12.543Z,19.41
2016-11-04T11:43:12.046Z,19.41
2016-11-04T11:44:12.879Z,19.41
2016-11-04T11:45:13.334Z,19.45
2016-11-04T11:46:13.457Z,19.41
2016-11-04T11:47:11.837Z,19.42
2016-11-04T11:48:13.756Z,19.41
2016-11-04T11:49:12.442Z,19.42
2016-11-04T11:50:13.108Z,19.40
2016-11-04T11:51:12.997Z,19.40
2016-11-04T11:52:13.412Z,19.40
2016-11-04T11:53:14.032Z,19.42
2016-11-04T11:54:12.903Z,19.41
2016-11-04T11:55:13.342Z,19.47
2016-11-04T11:56:13.388Z,19.42
2016-11-04T11:57:12.034Z,19.94
2016-11-04T11:58:13.363Z,19.63
2016-11-04T11:59:13.363Z,19.51
2016-11-04T12:00:12.898Z,19.98
2016-11-04T12:01:12.277Z,20.03
2016-11-04T12:02:13.080Z,19.51
2016-11-04T12:03:13.185Z,19.49
2016-11-04T12:04:12.630Z,19.98
2016-11-04T12:05:13.039Z,20.01
2016-11-04T12:06:13.849Z,20.03
2016-11-04T12:07:13.231Z,20.04
2016-11-04T12:08:12.762Z,19.69
2016-11-04T12:09:12.971Z,19.54
2016-11-04T12:10:13.834Z,19.47
2016-11-04T12:11:12.868Z,19.45
2016-11-04T12:12:13.529Z,19.44
2016-11-04T12:13:15.188Z,19.43
2016-11-04T12:14:18.815Z,19.44
2016-11-04T12:15:12.837Z,19.43
2016-11-04T12:16:13.184Z,19.43
2016-11-04T12:17:13.194Z,19.41
2016-11-04T12:18:12.986Z,19.41
2016-11-04T12:19:12.553Z,19.42
2016-11-04T12:20:12.816Z,19.41
2016-11-04T12:21:12.329Z,19.43
2016-11-04T12:22:13.355Z,19.46
2016-11-04T12:23:13.061Z,19.41
2016-11-04T12:24:13.110Z,19.40
2016-11-04T12:25:13.944Z,19.40
2016-11-04T12:26:13.047Z,19.40
2016-11-04T12:27:13.036Z,19.42
2016-11-04T12:28:12.666Z,19.41
2016-11-04T12:29:12.454Z,19.41
2016-11-04T12:30:13.389Z,19.48
2016-11-04T12:31:13.137Z,19.40
2016-11-04T12:32:12.556Z,19.41
2016-11-04T12:33:10.853Z,19.40
2016-11-04T12:34:13.817Z,19.41
2016-11-04T12:35:12.698Z,19.41
2016-11-04T12:36:13.092Z,19.44
2016-11-04T12:37:12.731Z,19.40
2016-11-04T12:38:12.485Z,19.41
2016-11-04T12:39:13.348Z,19.41
2016-11-04T12:40:12.619Z,19.40
2016-11-04T12:41:12.953Z,19.41
2016-11-04T12:42:13.020Z,19.41
2016-11-04T12:43:12.770Z,19.42
2016-11-04T12:44:12.570Z,19.41
2016-11-04T12:45:10.999Z,19.41
2016-11-04T12:46:13.845Z,19.41
2016-11-04T12:47:12.885Z,19.42
2016-11-04T12:48:13.119Z,19.41
2016-11-04T12:49:13.335Z,19.45
2016-11-04T12:50:13.352Z,19.50
2016-11-04T12:51:13.031Z,19.42
2016-11-04T12:52:13.871Z,19.42